createdAt,value
2023-05-22T00:37:59.469Z,9.70
2023-05-22T00:57:46.086Z,9.80
2023-05-22T01:05:13.302Z,9.70
2023-05-22T01:07:41.119Z,9.70
2023-05-22T01:10:08.897Z,9.70
2023-05-22T01:13:01.278Z,9.60
2023-05-22T01:15:43.231Z,9.60
2023-05-22T01:18:26.378Z,9.60
2023-05-22T01:21:06.412Z,11.50
2023-05-22T01:24:06.622Z,9.60
2023-05-22T01:26:58.355Z,9.50
2023-05-22T01:29:31.208Z,9.50
2023-05-22T01:32:00.684Z,9.40
2023-05-22T01:34:29.901Z,9.40
2023-05-22T01:36:58.822Z,9.40
2023-05-22T01:39:28.723Z,9.40
2023-05-22T01:41:56.117Z,9.50
2023-05-22T01:44:23.813Z,9.40
2023-05-22T01:46:51.016Z,10.00
2023-05-22T01:49:18.613Z,9.70
2023-05-22T01:51:54.314Z,9.40
2023-05-22T01:54:50.340Z,10.70
2023-05-22T01:57:48.045Z,9.20
2023-05-22T02:00:16.744Z,9.40
2023-05-22T02:02:50.665Z,9.30
2023-05-22T02:05:21.595Z,10.80
2023-05-22T02:10:20.531Z,9.30
2023-05-22T02:12:48.475Z,8.70
2023-05-22T02:17:45.699Z,9.20
2023-05-22T02:20:15.575Z,9.30
2023-05-22T02:22:47.187Z,9.20
2023-05-22T02:25:17.260Z,9.20
2023-05-22T02:27:47.523Z,9.30
2023-05-22T02:42:37.597Z,9.30
2023-05-22T02:45:06.418Z,9.30
2023-05-22T02:47:33.609Z,9.20
2023-05-22T02:50:01.128Z,9.20
2023-05-22T02:52:28.479Z,9.70
2023-05-22T02:54:55.946Z,9.90
2023-05-22T02:57:23.726Z,9.40
2023-05-22T02:59:52.737Z,9.30
2023-05-22T03:02:20.285Z,9.20
2023-05-22T03:04:49.092Z,9.30
2023-05-22T03:07:17.061Z,9.30
2023-05-22T03:09:44.713Z,9.40
2023-05-22T03:12:12.444Z,9.50
2023-05-22T03:14:40.000Z,9.40
2023-05-22T03:17:07.316Z,9.40
2023-05-22T03:19:34.894Z,9.50
2023-05-22T03:22:02.075Z,9.60
2023-05-22T03:24:30.615Z,10.40
2023-05-22T03:26:59.078Z,10.10
2023-05-22T03:29:38.419Z,9.70
2023-05-22T03:32:06.015Z,9.70
2023-05-22T03:34:33.584Z,9.70
2023-05-22T03:37:02.497Z,9.70
2023-05-22T03:39:29.920Z,9.80
2023-05-22T03:42:01.989Z,9.90
2023-05-22T03:44:30.204Z,9.90
2023-05-22T03:46:57.424Z,9.90
2023-05-22T03:49:25.057Z,10.10
2023-05-22T03:51:52.190Z,10.50
2023-05-22T03:54:19.631Z,10.20
2023-05-22T03:56:46.763Z,10.30
2023-05-22T03:59:14.201Z,10.20
2023-05-22T04:01:41.352Z,10.20
2023-05-22T04:04:09.749Z,10.40
2023-05-22T04:06:43.239Z,10.50
2023-05-22T04:09:13.602Z,10.50
2023-05-22T04:11:42.333Z,10.60
2023-05-22T04:14:10.341Z,10.60
2023-05-22T04:16:37.597Z,11.20
2023-05-22T04:19:05.948Z,10.90
2023-05-22T04:21:34.534Z,10.90
2023-05-22T04:24:07.283Z,11.10
2023-05-22T04:26:34.901Z,11.30
2023-05-22T04:29:03.854Z,12.30
2023-05-22T04:31:31.206Z,11.40
2023-05-22T04:34:00.263Z,11.70
2023-05-22T04:36:28.074Z,11.80
2023-05-22T04:38:55.883Z,12.00
2023-05-22T04:41:26.838Z,12.10
2023-05-22T04:43:54.879Z,12.20
2023-05-22T04:46:22.716Z,12.30
2023-05-22T04:48:51.107Z,12.50
2023-05-22T04:51:18.683Z,12.70
2023-05-22T04:53:46.437Z,12.90
2023-05-22T04:56:16.587Z,13.60
2023-05-22T04:58:53.975Z,13.30
2023-05-22T05:01:21.866Z,13.50
2023-05-22T05:03:49.708Z,13.80
2023-05-22T05:06:17.399Z,14.00
2023-05-22T05:08:46.814Z,14.20
2023-05-22T05:11:14.262Z,14.40
2023-05-22T05:13:43.039Z,14.60
2023-05-22T05:16:10.330Z,14.70
2023-05-22T05:18:38.199Z,14.90
2023-05-22T05:21:05.723Z,15.10
2023-05-22T05:23:33.153Z,15.30
2023-05-22T05:26:00.351Z,15.50
2023-05-22T05:28:29.018Z,15.40
2023-05-22T05:30:57.748Z,15.60
2023-05-22T05:33:49.162Z,15.60
2023-05-22T05:36:42.676Z,15.80
2023-05-22T05:39:10.903Z,15.80
2023-05-22T05:41:38.945Z,16.00
2023-05-22T05:44:10.260Z,16.10
2023-05-22T05:46:38.475Z,16.10
2023-05-22T05:49:10.322Z,16.00
2023-05-22T05:51:39.264Z,16.40
2023-05-22T05:54:07.633Z,16.20
2023-05-22T05:56:35.012Z,16.50
2023-05-22T05:59:04.459Z,16.60
2023-05-22T06:01:38.716Z,16.40
2023-05-22T06:04:11.575Z,16.60
2023-05-22T06:06:39.833Z,16.60
2023-05-22T06:09:10.482Z,16.60
2023-05-22T06:12:13.094Z,16.90
2023-05-22T06:14:44.410Z,17.30
2023-05-22T06:17:12.607Z,17.30
2023-05-22T06:22:10.504Z,17.40
2023-05-22T06:27:13.809Z,18.20
2023-05-22T06:37:09.563Z,19.30
2023-05-22T06:39:42.141Z,19.50
2023-05-22T06:42:33.362Z,19.60
2023-05-22T06:45:21.189Z,19.60
2023-05-22T06:48:04.381Z,20.40
2023-05-22T06:50:36.080Z,21.20
2023-05-22T06:53:03.334Z,21.50
2023-05-22T06:55:33.195Z,22.10
2023-05-22T06:58:08.772Z,22.80
2023-05-22T07:00:36.796Z,23.00
2023-05-22T07:03:21.550Z,23.30
2023-05-22T07:06:18.457Z,23.40
2023-05-22T07:08:45.870Z,23.10
2023-05-22T07:11:13.338Z,23.30
2023-05-22T07:13:40.536Z,23.30
2023-05-22T07:16:08.255Z,24.10
2023-05-22T07:18:35.949Z,24.70
2023-05-22T07:21:03.379Z,25.10
2023-05-22T07:23:30.920Z,25.00
2023-05-22T07:25:58.576Z,25.50
2023-05-22T07:28:32.033Z,25.70
2023-05-22T07:31:09.266Z,26.20
2023-05-22T07:33:37.417Z,26.20
2023-05-22T07:36:05.510Z,26.60
2023-05-22T07:38:32.947Z,26.60
2023-05-22T07:41:04.919Z,27.20
2023-05-22T07:43:33.953Z,27.20
2023-05-22T07:46:01.781Z,27.00
2023-05-22T07:48:36.073Z,27.50
2023-05-22T07:51:03.995Z,27.30
2023-05-22T07:53:31.911Z,27.40
2023-05-22T07:56:02.408Z,27.90
2023-05-22T07:58:31.512Z,28.10
2023-05-22T08:01:01.606Z,28.10
2023-05-22T08:03:29.121Z,28.60
2023-05-22T08:05:57.041Z,28.60
2023-05-22T08:08:24.377Z,28.70
2023-05-22T08:11:02.877Z,28.90
2023-05-22T08:13:31.425Z,28.90
2023-05-22T08:16:00.325Z,29.00
2023-05-22T08:18:29.804Z,29.30
2023-05-22T08:20:57.890Z,28.50
2023-05-22T08:23:25.244Z,28.80
2023-05-22T08:25:52.795Z,29.20
2023-05-22T08:28:20.218Z,29.30
2023-05-22T08:30:47.767Z,29.20
2023-05-22T08:33:15.058Z,28.90
2023-05-22T08:35:42.675Z,29.00
2023-05-22T08:38:10.042Z,29.00
2023-05-22T08:40:39.454Z,28.60
2023-05-22T08:43:07.450Z,28.30
2023-05-22T08:45:35.193Z,29.00
2023-05-22T08:48:05.981Z,28.80
2023-05-22T08:50:37.510Z,29.60
2023-05-22T08:53:07.354Z,29.30
2023-05-22T08:55:35.168Z,30.00
2023-05-22T08:58:02.735Z,30.00
2023-05-22T09:00:30.996Z,29.40
2023-05-22T09:02:58.762Z,29.20
2023-05-22T09:05:26.799Z,30.20
2023-05-22T09:08:02.589Z,31.10
2023-05-22T09:10:33.197Z,31.30
2023-05-22T09:13:09.490Z,31.50
2023-05-22T09:15:38.025Z,31.40
2023-05-22T09:18:06.687Z,31.00
2023-05-22T09:20:39.250Z,31.10
2023-05-22T09:23:12.649Z,30.20
2023-05-22T09:25:43.132Z,30.00
2023-05-22T09:28:11.821Z,30.10
2023-05-22T09:30:40.244Z,30.00
2023-05-22T09:33:09.519Z,30.20
2023-05-22T09:35:39.614Z,30.20
2023-05-22T09:38:07.071Z,30.50
2023-05-22T09:40:38.272Z,30.90
2023-05-22T09:43:12.540Z,30.70
2023-05-22T09:45:40.232Z,30.90
2023-05-22T09:48:09.872Z,31.00
2023-05-22T09:58:05.446Z,29.70
2023-05-22T10:00:35.492Z,30.80
2023-05-22T10:03:12.174Z,31.10
2023-05-22T10:05:47.100Z,30.20
2023-05-22T10:08:42.151Z,29.30
2023-05-22T10:11:11.444Z,29.90
2023-05-22T10:18:38.182Z,30.60
2023-05-22T10:28:38.353Z,33.20
2023-05-22T10:31:19.038Z,32.20
2023-05-22T10:34:26.950Z,31.70
2023-05-22T10:37:17.098Z,29.20
2023-05-22T10:40:14.199Z,29.30
2023-05-22T10:45:10.924Z,30.50
2023-05-22T10:47:38.666Z,30.70
2023-05-22T10:50:11.314Z,30.50
2023-05-22T10:52:40.184Z,30.80
2023-05-22T10:55:09.744Z,31.10
2023-05-22T10:57:40.810Z,30.00
2023-05-22T11:00:13.225Z,29.40
2023-05-22T11:02:45.227Z,29.10
2023-05-22T11:05:21.893Z,29.40
2023-05-22T11:07:49.961Z,28.30
2023-05-22T11:10:27.831Z,28.60
2023-05-22T11:13:13.948Z,28.30
2023-05-22T11:15:45.983Z,28.10
2023-05-22T11:18:14.743Z,27.50
2023-05-22T11:20:42.551Z,27.60
2023-05-22T11:23:11.726Z,27.70
2023-05-22T11:25:41.448Z,28.20
2023-05-22T11:28:10.872Z,28.00
2023-05-22T11:30:39.069Z,27.50
2023-05-22T11:33:06.917Z,27.20
2023-05-22T11:35:34.849Z,26.70
2023-05-22T11:38:06.295Z,26.50
2023-05-22T11:40:34.655Z,26.30
2023-05-22T11:43:04.128Z,26.30
2023-05-22T11:45:31.587Z,26.10
2023-05-22T11:48:00.507Z,26.20
2023-05-22T11:53:09.970Z,28.10
2023-05-22T11:55:37.281Z,29.90
2023-05-22T11:58:04.835Z,30.30
2023-05-22T12:00:32.594Z,30.90
2023-05-22T12:03:00.409Z,30.80
2023-05-22T12:05:27.963Z,30.70
2023-05-22T12:07:55.679Z,31.10
2023-05-22T12:10:23.304Z,30.20
2023-05-22T12:12:50.925Z,29.70
2023-05-22T12:15:21.379Z,29.10
2023-05-22T12:20:16.888Z,29.20
2023-05-22T12:22:44.574Z,30.00
2023-05-22T12:25:20.584Z,30.90
2023-05-22T12:27:48.621Z,31.00
2023-05-22T12:30:17.134Z,30.50
2023-05-22T12:32:49.898Z,30.60
2023-05-22T12:35:18.499Z,30.40
2023-05-22T12:37:50.614Z,30.30
2023-05-22T12:40:18.167Z,30.60
2023-05-22T12:42:45.948Z,30.90
2023-05-22T12:45:14.106Z,30.90
2023-05-22T12:47:41.984Z,31.90
2023-05-22T12:50:09.582Z,32.00
2023-05-22T12:52:37.128Z,31.70
2023-05-22T12:55:04.753Z,31.30
2023-05-22T12:57:32.563Z,30.00
2023-05-22T13:00:00.074Z,30.50
2023-05-22T13:02:27.849Z,30.20
2023-05-22T13:04:55.398Z,29.50
2023-05-22T13:07:23.193Z,29.30
2023-05-22T13:09:50.575Z,28.40
2023-05-22T13:12:19.410Z,27.90
2023-05-22T13:14:46.896Z,27.60
2023-05-22T13:17:14.432Z,28.00
2023-05-22T13:19:41.649Z,28.20
2023-05-22T13:22:09.254Z,28.80
2023-05-22T13:24:36.627Z,29.20
2023-05-22T13:27:04.418Z,29.70
2023-05-22T13:29:32.624Z,29.90
2023-05-22T13:32:01.450Z,30.20
2023-05-22T13:34:29.566Z,30.00
2023-05-22T13:36:57.337Z,29.90
2023-05-22T13:39:24.600Z,29.50
2023-05-22T13:41:53.462Z,29.90
2023-05-22T13:44:21.346Z,30.00
2023-05-22T13:46:49.218Z,30.10
2023-05-22T13:49:16.823Z,30.30
2023-05-22T13:51:44.373Z,30.40
2023-05-22T13:54:11.754Z,30.20
2023-05-22T13:56:39.377Z,30.50
2023-05-22T13:59:09.202Z,30.00
2023-05-22T14:01:37.292Z,29.80
2023-05-22T14:04:05.849Z,28.90
2023-05-22T14:06:34.046Z,28.50
2023-05-22T14:09:01.736Z,27.80
2023-05-22T14:11:30.250Z,27.50
2023-05-22T14:13:57.593Z,27.60
2023-05-22T14:16:25.211Z,27.90
2023-05-22T14:18:52.620Z,28.10
2023-05-22T14:21:20.486Z,28.40
2023-05-22T14:23:47.709Z,27.90
2023-05-22T14:26:15.284Z,27.80
2023-05-22T14:28:43.006Z,27.30
2023-05-22T14:31:10.615Z,27.30
2023-05-22T14:33:37.914Z,27.70
2023-05-22T14:36:06.412Z,27.80
2023-05-22T14:38:34.419Z,28.20
2023-05-22T14:41:02.367Z,28.50
2023-05-22T14:43:29.757Z,28.60
2023-05-22T14:45:58.237Z,28.80
2023-05-22T14:48:26.681Z,28.70
2023-05-22T14:50:54.422Z,28.90
2023-05-22T14:53:22.090Z,28.50
2023-05-22T14:55:49.797Z,28.20
2023-05-22T14:58:17.162Z,27.70
2023-05-22T15:00:46.196Z,27.30
2023-05-22T15:03:13.647Z,27.60
2023-05-22T15:05:41.600Z,27.40
2023-05-22T15:08:09.500Z,27.10
2023-05-22T15:10:37.056Z,27.10
2023-05-22T15:13:04.385Z,26.70
2023-05-22T15:15:31.937Z,26.50
2023-05-22T15:18:02.726Z,26.10
2023-05-22T15:20:31.227Z,25.60
2023-05-22T15:22:59.404Z,25.60
2023-05-22T15:25:27.297Z,25.40
2023-05-22T15:27:54.918Z,25.20
2023-05-22T15:30:23.631Z,25.20
2023-05-22T15:32:51.059Z,25.10
2023-05-22T15:35:18.618Z,25.20
2023-05-22T15:37:46.613Z,25.20
2023-05-22T15:40:17.485Z,25.20
2023-05-22T15:42:44.969Z,25.30
2023-05-22T15:45:12.723Z,25.20
2023-05-22T15:47:41.208Z,25.30
2023-05-22T15:50:09.530Z,25.20
2023-05-22T15:52:37.753Z,25.20
2023-05-22T15:55:06.002Z,25.00
2023-05-22T15:57:34.331Z,25.10
2023-05-22T16:00:02.294Z,25.00
2023-05-22T16:02:31.784Z,25.00
2023-05-22T16:04:59.741Z,24.90
2023-05-22T16:07:27.233Z,24.90
2023-05-22T16:09:54.761Z,24.80
2023-05-22T16:12:22.269Z,24.90
2023-05-22T16:14:49.967Z,24.90
2023-05-22T16:17:17.216Z,24.70
2023-05-22T16:19:44.997Z,24.70
2023-05-22T16:22:12.373Z,24.50
2023-05-22T16:24:41.225Z,24.40
2023-05-22T16:27:09.302Z,24.40
2023-05-22T16:29:37.150Z,24.30
2023-05-22T16:32:04.794Z,24.20
2023-05-22T16:34:33.968Z,24.00
2023-05-22T16:37:01.216Z,23.80
2023-05-22T16:39:28.843Z,23.70
2023-05-22T16:41:56.167Z,23.60
2023-05-22T16:44:23.956Z,23.50
2023-05-22T16:46:51.711Z,23.50
2023-05-22T16:49:19.383Z,23.50
2023-05-22T16:51:46.543Z,23.40
2023-05-22T16:54:14.243Z,23.20
2023-05-22T16:56:41.467Z,22.90
2023-05-22T16:59:09.010Z,23.00
2023-05-22T17:01:36.514Z,22.90
2023-05-22T17:04:04.288Z,22.80
2023-05-22T17:06:31.920Z,22.80
2023-05-22T17:08:59.674Z,22.70
2023-05-22T17:11:27.462Z,22.70
2023-05-22T17:13:55.242Z,22.70
2023-05-22T17:16:22.581Z,22.70
2023-05-22T17:18:51.378Z,22.70
2023-05-22T17:21:20.691Z,22.70
2023-05-22T17:23:48.418Z,22.60
2023-05-22T17:26:15.770Z,22.60
2023-05-22T17:28:43.384Z,22.50
2023-05-22T17:31:10.905Z,22.50
2023-05-22T17:33:38.693Z,22.50
2023-05-22T17:36:06.272Z,22.40
2023-05-22T17:38:33.836Z,22.40
2023-05-22T17:41:01.159Z,22.40
2023-05-22T17:43:29.398Z,22.30
2023-05-22T17:45:56.642Z,22.30
2023-05-22T17:48:27.291Z,22.20
2023-05-22T17:50:54.727Z,22.10
2023-05-22T17:53:22.288Z,21.90
2023-05-22T17:55:51.093Z,21.90
2023-05-22T17:58:20.683Z,21.70
2023-05-22T18:00:48.900Z,21.70
2023-05-22T18:03:20.483Z,21.60
2023-05-22T18:05:51.564Z,21.40
2023-05-22T18:08:21.373Z,21.30
2023-05-22T18:10:49.124Z,21.10
2023-05-22T18:13:19.330Z,21.00
2023-05-22T18:15:48.447Z,20.90
2023-05-22T18:18:16.708Z,20.70
2023-05-22T18:20:46.491Z,20.60
2023-05-22T18:23:14.221Z,20.50
2023-05-22T18:25:41.708Z,20.10
2023-05-22T18:28:10.026Z,20.10
2023-05-22T18:30:37.995Z,19.90
2023-05-22T18:33:05.717Z,19.80
2023-05-22T18:35:33.129Z,19.70
2023-05-22T18:38:00.756Z,19.60
2023-05-22T18:40:28.417Z,19.40
2023-05-22T18:42:55.953Z,19.20
2023-05-22T18:45:24.014Z,19.10
2023-05-22T18:47:51.751Z,18.90
2023-05-22T18:50:20.212Z,18.80
2023-05-22T18:52:50.275Z,18.60
2023-05-22T18:55:17.591Z,18.50
2023-05-22T18:57:46.071Z,18.40
2023-05-22T19:00:13.717Z,18.10
2023-05-22T19:02:41.458Z,18.10
2023-05-22T19:05:09.721Z,18.00
2023-05-22T19:07:38.423Z,17.80
2023-05-22T19:10:08.020Z,17.80
2023-05-22T19:12:36.164Z,17.70
2023-05-22T19:15:04.475Z,17.50
2023-05-22T19:17:33.220Z,17.30
2023-05-22T19:20:01.530Z,17.20
2023-05-22T19:22:29.565Z,17.20
2023-05-22T19:24:57.166Z,17.20
2023-05-22T19:27:26.675Z,17.00
2023-05-22T19:29:54.596Z,16.90
2023-05-22T19:32:22.387Z,16.80
2023-05-22T19:34:49.754Z,16.80
2023-05-22T19:37:17.822Z,16.70
2023-05-22T19:39:45.423Z,16.60
2023-05-22T19:42:12.986Z,16.50
2023-05-22T19:44:40.490Z,16.40
2023-05-22T19:47:08.482Z,16.50
2023-05-22T19:49:37.212Z,16.30
2023-05-22T19:52:06.821Z,16.20
2023-05-22T19:54:36.069Z,16.20
2023-05-22T19:57:04.457Z,16.00
2023-05-22T19:59:33.581Z,16.00
2023-05-22T20:02:02.894Z,15.80
2023-05-22T20:04:32.114Z,15.70
2023-05-22T20:07:00.122Z,15.60
2023-05-22T20:09:27.872Z,15.60
2023-05-22T20:11:55.856Z,15.40
2023-05-22T20:14:23.489Z,15.40
2023-05-22T20:16:51.800Z,15.30
2023-05-22T20:19:19.303Z,15.30
2023-05-22T20:21:49.733Z,15.30
2023-05-22T20:24:20.969Z,15.10
2023-05-22T20:26:48.914Z,15.10
2023-05-22T20:29:16.411Z,15.00
2023-05-22T20:31:44.331Z,15.00
2023-05-22T20:34:11.910Z,15.00
2023-05-22T20:36:41.072Z,14.90
2023-05-22T20:39:10.976Z,14.90
2023-05-22T20:41:38.739Z,14.70
2023-05-22T20:44:06.674Z,14.70
2023-05-22T20:46:35.056Z,14.60
2023-05-22T20:49:05.032Z,14.60
2023-05-22T20:51:32.883Z,14.50
2023-05-22T20:54:00.935Z,14.30
2023-05-22T20:56:30.179Z,14.30
2023-05-22T20:58:57.860Z,14.10
2023-05-22T21:01:26.144Z,13.90
2023-05-22T21:03:56.514Z,13.90
2023-05-22T21:06:24.580Z,13.90
2023-05-22T21:08:54.041Z,13.80
2023-05-22T21:11:22.826Z,13.70
2023-05-22T21:13:50.043Z,13.60
2023-05-22T21:16:17.667Z,13.60
2023-05-22T21:18:45.117Z,13.50
2023-05-22T21:21:16.112Z,14.10
2023-05-22T21:23:43.846Z,13.40
2023-05-22T21:26:11.662Z,13.40
2023-05-22T21:28:39.050Z,13.30
2023-05-22T21:31:07.174Z,13.30
2023-05-22T21:33:34.508Z,13.30
2023-05-22T21:36:02.194Z,13.30
2023-05-22T21:38:29.620Z,13.30
2023-05-22T21:40:57.216Z,13.20
2023-05-22T21:43:24.685Z,13.10
2023-05-22T21:45:52.353Z,13.50
2023-05-22T21:48:19.714Z,13.00
2023-05-22T21:50:47.537Z,13.00
2023-05-22T21:53:14.871Z,13.00
2023-05-22T21:55:42.435Z,12.90
2023-05-22T21:58:10.510Z,12.80
2023-05-22T22:00:38.708Z,12.80
2023-05-22T22:03:07.074Z,12.60
2023-05-22T22:05:36.383Z,12.60
2023-05-22T22:08:04.703Z,12.50
2023-05-22T22:10:32.202Z,12.40
2023-05-22T22:12:59.484Z,13.50
2023-05-22T22:15:27.036Z,12.40
2023-05-22T22:17:59.484Z,12.20
2023-05-22T22:20:39.962Z,12.30
2023-05-22T22:23:10.448Z,12.30
2023-05-22T22:25:39.478Z,12.20
2023-05-22T22:28:07.562Z,12.00
2023-05-22T22:30:35.630Z,12.10
2023-05-22T22:33:03.198Z,12.00
2023-05-22T22:35:30.859Z,11.90
2023-05-22T22:37:59.127Z,12.00
2023-05-22T22:40:27.104Z,11.90
2023-05-22T22:42:54.395Z,11.90
2023-05-22T22:45:21.976Z,11.90
2023-05-22T22:47:49.177Z,11.90
2023-05-22T22:50:16.898Z,11.80
2023-05-22T22:52:47.345Z,11.80
2023-05-22T22:55:15.082Z,11.70
2023-05-22T22:57:47.953Z,11.60
2023-05-22T23:00:16.691Z,11.70
2023-05-22T23:02:44.468Z,11.60
2023-05-22T23:05:12.507Z,11.60
2023-05-22T23:07:39.770Z,11.40
2023-05-22T23:10:08.148Z,11.40
2023-05-22T23:12:36.372Z,11.50
2023-05-22T23:15:04.609Z,11.30
2023-05-22T23:17:31.908Z,11.30
2023-05-22T23:19:59.343Z,11.20
2023-05-22T23:22:26.617Z,11.10
2023-05-22T23:24:54.098Z,11.00
2023-05-22T23:27:22.001Z,11.10
2023-05-22T23:29:49.480Z,11.00
2023-05-22T23:32:16.763Z,10.80
2023-05-22T23:34:44.487Z,10.80
2023-05-22T23:42:09.888Z,10.60
2023-05-22T23:47:05.750Z,11.00
2023-05-22T23:49:33.221Z,10.70
2023-05-22T23:52:00.578Z,10.60
2023-05-22T23:54:28.066Z,10.60
2023-05-22T23:56:55.370Z,10.50
2023-05-22T23:59:22.867Z,10.40
